Kindred, ND

8:20 AM CST on December 29, 2014 (GMT -0600)
West Fargo Official | Change Station
CLOSE
Current Station
Personal Weather Station
Location: West Fargo, ND
Elevation: 900 ft
Nearby Weather Stations
Active Advisory: Wind Chill Advisory

Elev 900 ft 46.82 °N, 96.92 °W | Updated 2 minutes ago

Clear
Clear
-10.7 °F
Feels Like -27 °F
N
7.8
Wind Variable Wind from NNE

Today
High -- | Low -- °F
--% Chance of Precip.
Yesterday
High -- | Low -- °F
Precip. -- in
8:12 AM 4:48 PM
First Quarter, 59% visible
Pressure 30.76 in
Visibility 10.0 miles
Clouds Clear
Windchill -27 °F
Dew Point -14 °F
Humidity 85%
Rainfall 0.00 in
Snow Depth Not available.
UV 0 out of 12
Pollen .10 out of 12
Air Quality Not available.
Flu Activity Not available.
METAR KFAR 291353Z 35011KT 10SM CLR M23/M27 A3066 RMK AO2 SLP414 T12281267

More Conditions Fewer Conditions

Pressure 30.76 in
Visibility 10.0 miles
Clouds Clear
Windchill -27 °F
Dew Point -14 °F
Humidity 85%
Rainfall 0.00 in
Snow Depth Not available.
UV 0 out of 12
Pollen .10 out of 12
Air Quality Not available.
Flu Activity Not available.
METAR KFAR 291353Z 35011KT 10SM CLR M23/M27 A3066 RMK AO2 SLP414 T12281267

More Conditions Fewer Conditions

10-Day Weather Forecast

Almanac

Astronomy

Dec. 29, 2014 Rise Set
Actual Time
Civil Twilight
Nautical Twilight
Astronomical Twilight
Moon
Length of Visible Light
Length of Day
Tomorrow will be .
, % of the Moon is Illuminated

Today's Extremes

State Highs State Lows

Community

WunderPhotos

Upload Photos

1,781,587 photos uploaded!

WunderBlogs® & News

Nearby

Air Quality

  Air Quality AQ Index Pollutant
Not available.

Snow Depth

Station Depth Elevation

Earthquake Activity

City Distance Mag. Time & Date
Minimum magnitude displayed is 2.5.

Coastal Water Temperatures

Place Temperature

Nearby Weather Stations